createdAt,value
2018-11-11T00:00:48.675Z,11.78
2018-11-11T00:01:48.415Z,11.75
2018-11-11T00:02:48.428Z,11.8
2018-11-11T00:03:48.657Z,11.77
2018-11-11T00:04:48.923Z,11.73
2018-11-11T00:05:48.686Z,11.78
2018-11-11T00:06:48.906Z,11.69
2018-11-11T00:07:48.650Z,11.73
2018-11-11T00:08:48.643Z,11.77
2018-11-11T00:09:50.553Z,11.73
2018-11-11T00:10:48.932Z,11.75
2018-11-11T00:11:48.899Z,11.7
2018-11-11T00:12:48.673Z,11.73
2018-11-11T00:13:48.615Z,11.69
2018-11-11T00:14:48.361Z,11.77
2018-11-11T00:15:48.883Z,11.69
2018-11-11T00:16:48.878Z,11.65
2018-11-11T00:17:48.872Z,11.66
2018-11-11T00:18:48.601Z,11.52
2018-11-11T00:19:48.600Z,11.54
2018-11-11T00:20:48.600Z,11.48
2018-11-11T00:21:48.785Z,11.44
2018-11-11T00:22:48.611Z,11.43
2018-11-11T00:23:48.870Z,11.51
2018-11-11T00:24:48.324Z,11.43
2018-11-11T00:25:48.574Z,11.47
2018-11-11T00:26:48.575Z,11.45
2018-11-11T00:27:48.311Z,11.47
2018-11-11T00:28:49.280Z,11.55
2018-11-11T00:29:48.819Z,11.48
2018-11-11T00:30:48.809Z,11.47
2018-11-11T00:31:48.596Z,11.52
2018-11-11T00:32:48.809Z,11.44
2018-11-11T00:33:48.542Z,11.43
2018-11-11T00:34:48.789Z,11.37
2018-11-11T00:35:48.282Z,11.32
2018-11-11T00:36:48.560Z,11.27
2018-11-11T00:37:48.534Z,11.29
2018-11-11T00:38:48.290Z,11.26
2018-11-11T00:39:48.730Z,11.17
2018-11-11T00:40:48.758Z,11.19
2018-11-11T00:41:48.514Z,11.18
2018-11-11T00:42:48.489Z,11.17
2018-11-11T00:43:48.492Z,11.07
2018-11-11T00:44:48.223Z,11.1
2018-11-11T00:45:48.475Z,11.25
2018-11-11T00:46:48.487Z,11.25
2018-11-11T00:47:48.730Z,11.27
2018-11-11T00:48:49.803Z,11.32
2018-11-11T00:49:48.718Z,11.32
2018-11-11T00:50:48.453Z,11.3
2018-11-11T00:51:48.185Z,11.32
2018-11-11T00:52:48.467Z,11.32
2018-11-11T00:53:48.455Z,11.27
2018-11-11T00:54:48.685Z,11.25
2018-11-11T00:55:48.446Z,11.26
2018-11-11T00:56:48.410Z,11.29
2018-11-11T00:57:48.413Z,11.3
2018-11-11T00:58:48.434Z,11.3
2018-11-11T00:59:48.407Z,11.29
2018-11-11T01:00:48.667Z,11.29
2018-11-11T01:01:48.391Z,11.33
2018-11-11T01:02:48.659Z,11.33
2018-11-11T01:03:48.461Z,11.12
2018-11-11T01:04:48.384Z,11.1
2018-11-11T01:05:48.442Z,11.15
2018-11-11T01:06:48.625Z,11.15
2018-11-11T01:07:48.754Z,11.14
2018-11-11T01:08:48.369Z,11.1
2018-11-11T01:09:48.626Z,11.02
2018-11-11T01:10:48.352Z,10.94
2018-11-11T01:11:48.085Z,10.92
2018-11-11T01:12:48.603Z,10.99
2018-11-11T01:13:48.605Z,10.93
2018-11-11T01:14:48.062Z,10.9
2018-11-11T01:15:48.573Z,10.94
2018-11-11T01:16:48.059Z,10.86
2018-11-11T01:17:48.562Z,10.94
2018-11-11T01:18:49.100Z,10.87
2018-11-11T01:19:48.299Z,10.87
2018-11-11T01:20:48.284Z,10.82
2018-11-11T01:21:48.539Z,10.82
2018-11-11T01:22:48.292Z,10.87
2018-11-11T01:23:48.315Z,10.89
2018-11-11T01:24:48.519Z,10.84
2018-11-11T01:25:48.261Z,10.87
2018-11-11T01:26:48.503Z,10.81
2018-11-11T01:27:48.503Z,10.87
2018-11-11T01:28:48.242Z,10.94
2018-11-11T01:29:48.243Z,10.89
2018-11-11T01:30:47.974Z,10.86
2018-11-11T01:31:48.254Z,10.89
2018-11-11T01:32:48.224Z,10.81
2018-11-11T01:33:48.214Z,10.81
2018-11-11T01:34:48.486Z,10.76
2018-11-11T01:35:48.193Z,10.76
2018-11-11T01:36:48.190Z,10.71
2018-11-11T01:37:47.931Z,10.86
2018-11-11T01:38:48.209Z,10.76
2018-11-11T01:39:48.420Z,10.79
2018-11-11T01:40:48.173Z,10.75
2018-11-11T01:41:48.416Z,10.74
2018-11-11T01:42:48.156Z,10.79
2018-11-11T01:43:48.409Z,10.76
2018-11-11T01:44:47.889Z,10.78
2018-11-11T01:45:48.152Z,10.72
2018-11-11T01:46:48.386Z,10.79
2018-11-11T01:47:47.882Z,10.72
2018-11-11T01:48:48.120Z,10.78
2018-11-11T01:49:48.112Z,10.63
2018-11-11T01:50:47.860Z,10.74
2018-11-11T01:51:48.383Z,10.75
2018-11-11T01:52:48.124Z,10.72
2018-11-11T01:53:48.105Z,10.71
2018-11-11T01:54:47.830Z,10.78
2018-11-11T01:55:48.328Z,10.74
2018-11-11T01:56:48.345Z,10.64
2018-11-11T01:57:48.088Z,10.79
2018-11-11T01:58:47.805Z,10.74
2018-11-11T01:59:48.061Z,10.71
2018-11-11T02:00:48.067Z,10.72
2018-11-11T02:01:48.309Z,10.75
2018-11-11T02:02:48.037Z,10.69
2018-11-11T02:03:48.295Z,10.75
2018-11-11T02:04:48.291Z,10.71
2018-11-11T02:05:48.020Z,10.75
2018-11-11T02:06:48.017Z,10.68
2018-11-11T02:07:48.271Z,10.76
2018-11-11T02:08:47.991Z,10.86
2018-11-11T02:09:48.488Z,10.86
2018-11-11T02:10:48.009Z,10.86
2018-11-11T02:11:48.252Z,10.79
2018-11-11T02:12:47.981Z,10.79
2018-11-11T02:13:48.239Z,10.84
2018-11-11T02:14:47.964Z,10.89
2018-11-11T02:15:47.970Z,10.78
2018-11-11T02:16:47.954Z,10.89
2018-11-11T02:17:48.211Z,10.93
2018-11-11T02:18:47.949Z,10.93
2018-11-11T02:19:48.199Z,10.86
2018-11-11T02:20:47.935Z,10.94
2018-11-11T02:21:48.190Z,10.94
2018-11-11T02:22:48.208Z,10.94
2018-11-11T02:23:47.659Z,10.92
2018-11-11T02:24:48.170Z,10.9
2018-11-11T02:25:47.900Z,10.94
2018-11-11T02:26:48.159Z,10.96
2018-11-11T02:27:47.885Z,10.87
2018-11-11T02:28:47.888Z,10.86
2018-11-11T02:29:47.881Z,10.89
2018-11-11T02:30:47.913Z,10.94
2018-11-11T02:31:47.879Z,10.94
2018-11-11T02:32:47.878Z,11.08
2018-11-11T02:33:47.902Z,10.96
2018-11-11T02:34:48.129Z,11.08
2018-11-11T02:35:48.102Z,11.02
2018-11-11T02:36:48.115Z,11.19
2018-11-11T02:37:48.101Z,11.17
2018-11-11T02:38:47.850Z,11.17
2018-11-11T02:39:48.085Z,11.23
2018-11-11T02:40:48.106Z,11.26
2018-11-11T02:41:47.822Z,11.33
2018-11-11T02:42:47.822Z,11.33
2018-11-11T02:43:47.803Z,11.4
2018-11-11T02:44:48.055Z,11.32
2018-11-11T02:45:47.614Z,11.35
2018-11-11T02:46:48.069Z,11.4
2018-11-11T02:47:47.790Z,11.33
2018-11-11T02:48:47.537Z,11.35
2018-11-11T02:49:48.033Z,11.37
2018-11-11T02:50:47.508Z,11.36
2018-11-11T02:51:47.511Z,11.47
2018-11-11T02:52:48.055Z,11.37
2018-11-11T02:53:47.771Z,11.36
2018-11-11T02:54:47.758Z,11.41
2018-11-11T02:55:47.742Z,11.36
2018-11-11T02:56:47.496Z,11.37
2018-11-11T02:57:47.497Z,11.32
2018-11-11T02:58:47.998Z,11.36
2018-11-11T02:59:47.468Z,11.32
2018-11-11T03:00:47.722Z,11.29
2018-11-11T03:01:47.970Z,11.27
2018-11-11T03:02:47.738Z,11.27
2018-11-11T03:03:47.710Z,11.26
2018-11-11T03:04:47.962Z,11.26
2018-11-11T03:05:47.690Z,11.25
2018-11-11T03:06:47.951Z,11.25
2018-11-11T03:07:47.976Z,11.18
2018-11-11T03:08:47.679Z,11.26
2018-11-11T03:09:47.409Z,11.3
2018-11-11T03:10:47.701Z,11.29
2018-11-11T03:11:47.930Z,11.33
2018-11-11T03:12:47.926Z,11.33
2018-11-11T03:13:47.905Z,11.35
2018-11-11T03:14:47.909Z,11.33
2018-11-11T03:15:47.925Z,11.44
2018-11-11T03:16:47.643Z,11.44
2018-11-11T03:17:47.912Z,11.43
2018-11-11T03:18:47.636Z,11.5
2018-11-11T03:19:47.891Z,11.45
2018-11-11T03:20:47.873Z,11.47
2018-11-11T03:21:47.609Z,11.54
2018-11-11T03:22:47.608Z,11.52
2018-11-11T03:23:47.623Z,11.6
2018-11-11T03:24:47.850Z,11.59
2018-11-11T03:25:47.590Z,11.5
2018-11-11T03:26:47.581Z,11.54
2018-11-11T03:27:47.591Z,11.54
2018-11-11T03:28:47.576Z,11.48
2018-11-11T03:29:47.592Z,11.47
2018-11-11T03:30:47.825Z,11.54
2018-11-11T03:31:47.832Z,11.36
2018-11-11T03:32:47.566Z,11.44
2018-11-11T03:33:47.583Z,11.5
2018-11-11T03:34:47.823Z,11.37
2018-11-11T03:35:47.538Z,11.4
2018-11-11T03:36:47.539Z,11.41
2018-11-11T03:37:47.815Z,11.47
2018-11-11T03:38:47.271Z,11.47
2018-11-11T03:39:47.526Z,11.48
2018-11-11T03:40:47.266Z,11.5
2018-11-11T03:41:47.525Z,11.45
2018-11-11T03:42:47.785Z,11.47
2018-11-11T03:43:47.515Z,11.54
2018-11-11T03:44:47.772Z,11.52
2018-11-11T03:45:47.764Z,11.54
2018-11-11T03:46:47.760Z,11.59
2018-11-11T03:47:47.762Z,11.62
2018-11-11T03:48:47.752Z,11.63
2018-11-11T03:49:48.003Z,11.55
2018-11-11T03:50:47.756Z,11.59
2018-11-11T03:51:47.480Z,11.59
2018-11-11T03:52:47.751Z,11.54
2018-11-11T03:53:47.476Z,11.47
2018-11-11T03:54:47.723Z,11.4
2018-11-11T03:55:47.464Z,11.43
2018-11-11T03:56:47.471Z,11.41
2018-11-11T03:57:47.714Z,11.4
2018-11-11T03:58:47.764Z,11.4
2018-11-11T03:59:47.755Z,11.32
2018-11-11T04:00:47.200Z,11.32
2018-11-11T04:01:47.691Z,11.37
2018-11-11T04:02:47.704Z,11.37
2018-11-11T04:03:47.711Z,11.33
2018-11-11T04:04:47.186Z,11.27
2018-11-11T04:05:47.678Z,11.29
2018-11-11T04:06:47.691Z,11.26
2018-11-11T04:07:47.663Z,11.27
2018-11-11T04:08:47.407Z,11.27
2018-11-11T04:09:47.411Z,11.23
2018-11-11T04:10:47.405Z,11.25
2018-11-11T04:11:47.141Z,11.23
2018-11-11T04:12:47.391Z,11.27
2018-11-11T04:13:47.149Z,11.17
2018-11-11T04:14:47.378Z,11.08
2018-11-11T04:15:47.644Z,11.12
2018-11-11T04:16:47.687Z,11.15
2018-11-11T04:17:47.711Z,11.14
2018-11-11T04:18:47.627Z,11.1
2018-11-11T04:19:47.366Z,11.12
2018-11-11T04:20:47.372Z,11.3
2018-11-11T04:21:47.360Z,11.18
2018-11-11T04:22:47.339Z,11.12
2018-11-11T04:23:47.338Z,11.1
2018-11-11T04:24:47.355Z,11.19
2018-11-11T04:25:47.333Z,11.23
2018-11-11T04:26:47.066Z,11.19
2018-11-11T04:27:47.586Z,11.25
2018-11-11T04:28:47.584Z,11.26
2018-11-11T04:29:47.319Z,11.26
2018-11-11T04:30:47.573Z,11.29
2018-11-11T04:31:47.565Z,11.22
2018-11-11T04:32:47.299Z,11.22
2018-11-11T04:33:47.551Z,11.22
2018-11-11T04:34:47.566Z,11.23
2018-11-11T04:35:47.292Z,11.25
2018-11-11T04:36:47.557Z,11.25
2018-11-11T04:37:47.558Z,11.29
2018-11-11T04:38:47.281Z,11.27
2018-11-11T04:39:47.540Z,11.33
2018-11-11T04:40:47.558Z,11.27
2018-11-11T04:41:47.582Z,11.27
2018-11-11T04:42:47.004Z,11.26
2018-11-11T04:43:47.012Z,11.19
2018-11-11T04:44:47.277Z,11.19
2018-11-11T04:45:47.238Z,11.17
2018-11-11T04:46:47.501Z,11.11
2018-11-11T04:47:47.500Z,11.18
2018-11-11T04:48:47.488Z,11.1
2018-11-11T04:49:48.282Z,11.12
2018-11-11T04:50:46.964Z,11.17
2018-11-11T04:51:47.475Z,11.15
2018-11-11T04:52:47.214Z,11.11
2018-11-11T04:53:47.474Z,11.1
2018-11-11T04:54:47.460Z,11.17
2018-11-11T04:55:47.451Z,11.17
2018-11-11T04:56:46.932Z,11.12
2018-11-11T04:57:47.455Z,11.17
2018-11-11T04:58:47.454Z,11.22
2018-11-11T04:59:46.926Z,11.19
2018-11-11T05:00:47.189Z,11.12
2018-11-11T05:01:47.255Z,11.05
2018-11-11T05:02:47.417Z,11.02
2018-11-11T05:03:47.147Z,11.05
2018-11-11T05:04:47.838Z,10.94
2018-11-11T05:05:47.144Z,10.99
2018-11-11T05:06:47.401Z,10.96
2018-11-11T05:07:47.131Z,10.99
2018-11-11T05:08:46.876Z,10.97
2018-11-11T05:09:47.406Z,10.92
2018-11-11T05:10:47.393Z,10.97
2018-11-11T05:11:47.140Z,11.07
2018-11-11T05:12:47.367Z,11.08
2018-11-11T05:13:46.846Z,11.18
2018-11-11T05:14:46.848Z,11.15
2018-11-11T05:15:47.097Z,11.22
2018-11-11T05:16:47.093Z,11.3
2018-11-11T05:17:47.084Z,11.32
2018-11-11T05:18:46.819Z,11.26
2018-11-11T05:19:47.331Z,11.36
2018-11-11T05:20:46.807Z,11.44
2018-11-11T05:21:47.541Z,11.51
2018-11-11T05:22:47.320Z,11.48
2018-11-11T05:23:47.313Z,11.41
2018-11-11T05:24:47.312Z,11.45
2018-11-11T05:25:47.314Z,11.41
2018-11-11T05:26:46.782Z,11.4
2018-11-11T05:27:47.314Z,11.44
2018-11-11T05:28:47.293Z,11.5
2018-11-11T05:29:47.290Z,11.45
2018-11-11T05:30:46.810Z,11.48
2018-11-11T05:31:47.263Z,11.5
2018-11-11T05:32:47.272Z,11.45
2018-11-11T05:33:47.014Z,11.4
2018-11-11T05:34:47.272Z,11.41
2018-11-11T05:35:47.275Z,11.32
2018-11-11T05:36:47.261Z,11.35
2018-11-11T05:37:47.269Z,11.33
2018-11-11T05:38:46.736Z,11.3
2018-11-11T05:39:47.232Z,11.23
2018-11-11T05:40:47.008Z,11.25
2018-11-11T05:41:46.970Z,11.12
2018-11-11T05:42:46.717Z,11.17
2018-11-11T05:43:47.221Z,11.22
2018-11-11T05:44:47.224Z,11.18
2018-11-11T05:45:47.444Z,11.25
2018-11-11T05:46:47.221Z,11.23
2018-11-11T05:47:46.963Z,11.3
2018-11-11T05:48:46.943Z,11.27
2018-11-11T05:49:47.195Z,11.29
2018-11-11T05:50:49.108Z,11.33
2018-11-11T05:51:47.174Z,11.36
2018-11-11T05:52:47.170Z,11.33
2018-11-11T05:53:47.162Z,11.32
2018-11-11T05:54:46.960Z,11.36
2018-11-11T05:55:47.147Z,11.33
2018-11-11T05:56:47.157Z,11.4
2018-11-11T05:57:47.140Z,11.41
2018-11-11T05:58:47.136Z,11.36
2018-11-11T05:59:46.619Z,11.33
2018-11-11T06:00:47.134Z,11.4
2018-11-11T06:01:47.140Z,11.43
2018-11-11T06:02:46.886Z,11.36
2018-11-11T06:03:46.875Z,11.36
2018-11-11T06:04:46.618Z,11.44
2018-11-11T06:05:46.868Z,11.4
2018-11-11T06:06:47.110Z,11.48
2018-11-11T06:07:46.585Z,11.47
2018-11-11T06:08:46.837Z,11.44
2018-11-11T06:09:47.100Z,11.37
2018-11-11T06:10:47.640Z,11.51
2018-11-11T06:11:46.829Z,11.41
2018-11-11T06:12:46.831Z,11.4
2018-11-11T06:13:47.080Z,11.35
2018-11-11T06:14:47.066Z,11.33
2018-11-11T06:15:46.813Z,11.43
2018-11-11T06:16:46.814Z,11.35
2018-11-11T06:17:47.084Z,11.43
2018-11-11T06:18:46.548Z,11.45
2018-11-11T06:19:46.795Z,11.44
2018-11-11T06:20:46.786Z,11.37
2018-11-11T06:21:46.804Z,11.41
2018-11-11T06:22:47.064Z,11.43
2018-11-11T06:23:47.036Z,11.43
2018-11-11T06:24:47.039Z,11.4
2018-11-11T06:25:47.025Z,11.4
2018-11-11T06:26:47.034Z,11.35
2018-11-11T06:27:46.506Z,11.45
2018-11-11T06:28:47.039Z,11.37
2018-11-11T06:29:46.811Z,11.43
2018-11-11T06:30:46.762Z,11.47
2018-11-11T06:31:46.478Z,11.33
2018-11-11T06:32:46.756Z,11.33
2018-11-11T06:33:46.741Z,11.37
2018-11-11T06:34:46.982Z,11.35
2018-11-11T06:35:46.741Z,11.4
2018-11-11T06:36:46.729Z,11.47
2018-11-11T06:37:46.962Z,11.47
2018-11-11T06:38:46.458Z,11.36
2018-11-11T06:39:46.472Z,11.41
2018-11-11T06:40:46.953Z,11.41
2018-11-11T06:41:46.701Z,11.44
2018-11-11T06:42:46.728Z,11.43
2018-11-11T06:43:46.713Z,11.45
2018-11-11T06:44:46.703Z,11.45
2018-11-11T06:45:46.692Z,11.44
2018-11-11T06:46:46.691Z,11.4
2018-11-11T06:47:46.675Z,11.4
2018-11-11T06:48:46.942Z,11.35
2018-11-11T06:49:46.930Z,11.36
2018-11-11T06:50:46.935Z,11.43
2018-11-11T06:51:46.414Z,11.35
2018-11-11T06:52:46.908Z,11.44
2018-11-11T06:53:46.650Z,11.3
2018-11-11T06:54:46.776Z,11.41
2018-11-11T06:55:46.659Z,11.36
2018-11-11T06:56:46.654Z,11.4
2018-11-11T06:57:46.908Z,11.41
2018-11-11T06:58:46.891Z,11.41
2018-11-11T06:59:46.636Z,11.37
2018-11-11T07:00:46.881Z,11.36
2018-11-11T07:01:46.892Z,11.43
2018-11-11T07:02:46.620Z,11.41
2018-11-11T07:03:46.781Z,11.44
2018-11-11T07:04:46.632Z,11.44
2018-11-11T07:05:46.345Z,11.45
2018-11-11T07:06:46.595Z,11.51
2018-11-11T07:07:46.988Z,11.54
2018-11-11T07:08:46.576Z,11.5
2018-11-11T07:09:46.860Z,11.6
2018-11-11T07:10:46.575Z,11.59
2018-11-11T07:11:46.832Z,11.62
2018-11-11T07:12:46.566Z,11.65
2018-11-11T07:13:46.857Z,11.63
2018-11-11T07:14:46.303Z,11.69
2018-11-11T07:15:46.823Z,11.68
2018-11-11T07:16:46.573Z,11.68
2018-11-11T07:17:46.578Z,11.72
2018-11-11T07:18:46.534Z,11.69
2018-11-11T07:19:46.546Z,11.73
2018-11-11T07:20:46.561Z,11.77
2018-11-11T07:21:46.276Z,11.78
2018-11-11T07:22:46.537Z,11.73
2018-11-11T07:23:46.834Z,11.8
2018-11-11T07:24:46.801Z,11.8
2018-11-11T07:25:46.511Z,11.81
2018-11-11T07:26:46.761Z,11.77
2018-11-11T07:27:46.512Z,11.84
2018-11-11T07:28:46.536Z,11.81
2018-11-11T07:29:46.771Z,11.86
2018-11-11T07:30:46.237Z,11.8
2018-11-11T07:31:46.500Z,11.75
2018-11-11T07:32:46.752Z,11.78
2018-11-11T07:33:46.760Z,11.69
2018-11-11T07:34:46.740Z,11.73
2018-11-11T07:35:46.487Z,11.73
2018-11-11T07:36:46.736Z,11.73
2018-11-11T07:37:46.481Z,11.73
2018-11-11T07:38:46.484Z,11.73
2018-11-11T07:39:46.459Z,11.7
2018-11-11T07:40:46.711Z,11.68
2018-11-11T07:41:46.722Z,11.73
2018-11-11T07:42:46.690Z,11.78
2018-11-11T07:43:46.446Z,11.8
2018-11-11T07:44:46.691Z,11.8
2018-11-11T07:45:46.459Z,11.9
2018-11-11T07:46:46.172Z,11.83
2018-11-11T07:47:46.794Z,11.91
2018-11-11T07:48:46.669Z,12.02
2018-11-11T07:49:46.167Z,12
2018-11-11T07:50:46.153Z,12.02
2018-11-11T07:51:46.726Z,12.06
2018-11-11T07:52:46.669Z,12.12
2018-11-11T07:53:46.674Z,12.18
2018-11-11T07:54:46.727Z,12.18
2018-11-11T07:55:46.448Z,12.2
2018-11-11T07:56:46.156Z,12.21
2018-11-11T07:57:46.392Z,12.29
2018-11-11T07:58:46.642Z,12.22
2018-11-11T07:59:46.651Z,12.36
2018-11-11T08:00:46.630Z,12.42
2018-11-11T08:01:46.588Z,12.49
2018-11-11T08:02:46.633Z,12.54
2018-11-11T08:03:46.399Z,12.61
2018-11-11T08:04:46.368Z,12.62
2018-11-11T08:05:46.625Z,12.61
2018-11-11T08:06:46.619Z,12.61
2018-11-11T08:07:46.356Z,12.67
2018-11-11T08:08:46.616Z,12.65
2018-11-11T08:09:46.613Z,12.65
2018-11-11T08:10:46.595Z,12.61
2018-11-11T08:11:46.356Z,12.65
2018-11-11T08:12:46.356Z,12.55
2018-11-11T08:13:46.068Z,12.64
2018-11-11T08:14:46.333Z,12.62
2018-11-11T08:15:46.090Z,12.57
2018-11-11T08:16:46.515Z,12.62
2018-11-11T08:17:46.313Z,12.7
2018-11-11T08:18:46.573Z,12.75
2018-11-11T08:19:46.326Z,12.65
2018-11-11T08:20:46.568Z,12.75
2018-11-11T08:21:46.046Z,12.7
2018-11-11T08:22:46.572Z,12.65
2018-11-11T08:23:46.558Z,12.65
2018-11-11T08:24:46.331Z,12.7
2018-11-11T08:25:46.341Z,12.65
2018-11-11T08:26:46.031Z,12.62
2018-11-11T08:27:46.295Z,12.62
2018-11-11T08:28:46.288Z,12.65
2018-11-11T08:29:46.539Z,12.6
2018-11-11T08:30:46.271Z,12.58
2018-11-11T08:31:46.524Z,12.6
2018-11-11T08:32:46.294Z,12.62
2018-11-11T08:33:46.010Z,12.65
2018-11-11T08:34:46.271Z,12.62
2018-11-11T08:35:46.531Z,12.7
2018-11-11T08:36:46.007Z,12.76
2018-11-11T08:37:46.520Z,12.68
2018-11-11T08:38:46.273Z,12.68
2018-11-11T08:39:45.992Z,12.78
2018-11-11T08:40:46.425Z,12.85
2018-11-11T08:41:46.511Z,12.82
2018-11-11T08:42:46.500Z,12.83
2018-11-11T08:43:46.510Z,12.85
2018-11-11T08:44:46.275Z,12.91
2018-11-11T08:45:45.983Z,12.98
2018-11-11T08:46:46.243Z,13.01
2018-11-11T08:47:46.491Z,12.98
2018-11-11T08:48:46.493Z,13.01
2018-11-11T08:49:46.486Z,13.01
2018-11-11T08:50:46.228Z,13.01
2018-11-11T08:51:46.503Z,13.01
2018-11-11T08:52:46.236Z,13.05
2018-11-11T08:53:46.472Z,13.01
2018-11-11T08:54:46.469Z,13.09
2018-11-11T08:55:46.470Z,13.04
2018-11-11T08:56:46.485Z,13.01
2018-11-11T08:57:46.343Z,13.01
2018-11-11T08:58:46.463Z,13
2018-11-11T08:59:46.502Z,13.08
2018-11-11T09:00:46.207Z,13.08
2018-11-11T09:01:45.943Z,13.2
2018-11-11T09:02:46.189Z,13.22
2018-11-11T09:03:46.439Z,13.3
2018-11-11T09:04:46.680Z,13.25
2018-11-11T09:05:45.926Z,13.37
2018-11-11T09:06:46.180Z,13.47
2018-11-11T09:07:45.915Z,13.47
2018-11-11T09:08:46.439Z,13.5
2018-11-11T09:09:46.191Z,13.57
2018-11-11T09:10:46.172Z,13.49
2018-11-11T09:11:45.938Z,13.56
2018-11-11T09:12:46.448Z,13.54
2018-11-11T09:13:46.160Z,13.65
2018-11-11T09:14:46.423Z,13.7
2018-11-11T09:15:46.413Z,13.78
2018-11-11T09:16:46.458Z,13.78
2018-11-11T09:17:45.911Z,13.85
2018-11-11T09:18:46.416Z,13.81
2018-11-11T09:19:46.150Z,13.92
2018-11-11T09:20:46.187Z,13.93
2018-11-11T09:21:46.140Z,14.08
2018-11-11T09:22:46.138Z,14.07
2018-11-11T09:23:46.368Z,14.12
2018-11-11T09:24:46.140Z,14.14
2018-11-11T09:25:46.419Z,14.22
2018-11-11T09:26:45.870Z,14.29
2018-11-11T09:27:46.142Z,14.23
2018-11-11T09:28:46.138Z,14.29
2018-11-11T09:29:46.565Z,14.25
2018-11-11T09:30:46.117Z,14.2
2018-11-11T09:31:46.130Z,14.17
2018-11-11T09:32:45.876Z,14.15
2018-11-11T09:33:46.131Z,14.23
2018-11-11T09:34:46.367Z,14.2
2018-11-11T09:35:46.117Z,14.2
2018-11-11T09:36:46.375Z,14.22
2018-11-11T09:37:46.381Z,14.26
2018-11-11T09:38:46.138Z,14.15
2018-11-11T09:39:46.119Z,14.3
2018-11-11T09:40:46.360Z,14.33
2018-11-11T09:41:46.367Z,14.33
2018-11-11T09:42:46.297Z,14.33
2018-11-11T09:43:46.398Z,14.48
2018-11-11T09:44:46.091Z,14.48
2018-11-11T09:45:46.357Z,14.6
2018-11-11T09:46:46.099Z,14.65
2018-11-11T09:47:46.557Z,14.69
2018-11-11T09:48:46.351Z,14.81
2018-11-11T09:49:46.107Z,14.82
2018-11-11T09:50:46.092Z,14.88
2018-11-11T09:51:46.081Z,14.91
2018-11-11T09:52:46.266Z,14.92
2018-11-11T09:53:46.337Z,15
2018-11-11T09:54:46.330Z,14.99
2018-11-11T09:55:46.077Z,14.94
2018-11-11T09:56:46.342Z,15.02
2018-11-11T09:57:46.078Z,15.02
2018-11-11T09:58:46.407Z,15.04
2018-11-11T09:59:46.501Z,15.03
2018-11-11T10:00:46.335Z,15.1
2018-11-11T10:01:46.338Z,15.22
2018-11-11T10:02:46.084Z,15.15
2018-11-11T10:03:46.348Z,15.17
2018-11-11T10:04:46.438Z,15.18
2018-11-11T10:05:46.394Z,15.21
2018-11-11T10:06:46.500Z,15.17
2018-11-11T10:07:46.086Z,15.27
2018-11-11T10:08:46.064Z,15.19
2018-11-11T10:09:46.334Z,15.33
2018-11-11T10:10:46.075Z,15.31
2018-11-11T10:11:45.828Z,15.31
2018-11-11T10:12:46.116Z,15.35
2018-11-11T10:13:46.054Z,15.37
2018-11-11T10:14:46.342Z,15.37
2018-11-11T10:15:46.060Z,15.49
2018-11-11T10:16:46.324Z,15.43
2018-11-11T10:17:46.063Z,15.46
2018-11-11T10:18:46.067Z,15.49
2018-11-11T10:19:46.055Z,15.47
2018-11-11T10:20:46.573Z,15.57
2018-11-11T10:21:46.306Z,15.52
2018-11-11T10:22:46.061Z,15.59
2018-11-11T10:23:46.357Z,15.64
2018-11-11T10:24:46.297Z,15.65
2018-11-11T10:25:46.325Z,15.79
2018-11-11T10:26:46.319Z,15.76
2018-11-11T10:27:46.321Z,15.7
2018-11-11T10:28:45.789Z,15.77
2018-11-11T10:29:46.551Z,15.8
2018-11-11T10:30:46.320Z,15.79
2018-11-11T10:31:46.309Z,15.94
2018-11-11T10:32:45.801Z,15.97
2018-11-11T10:33:46.596Z,16.04
2018-11-11T10:34:46.057Z,16.1
2018-11-11T10:35:46.052Z,16.16
2018-11-11T10:36:46.044Z,16.23
2018-11-11T10:37:46.036Z,16.26
2018-11-11T10:38:45.787Z,16.42
2018-11-11T10:39:46.049Z,16.5
2018-11-11T10:40:46.045Z,16.54
2018-11-11T10:41:46.055Z,16.58
2018-11-11T10:42:46.040Z,16.58
2018-11-11T10:43:46.303Z,16.58
2018-11-11T10:44:46.321Z,16.56
2018-11-11T10:45:46.295Z,16.65
2018-11-11T10:46:46.308Z,16.69
2018-11-11T10:47:46.067Z,16.68
2018-11-11T10:48:46.068Z,16.75
2018-11-11T10:49:46.300Z,16.81
2018-11-11T10:50:46.311Z,16.78
2018-11-11T10:51:46.050Z,16.71
2018-11-11T10:52:46.054Z,16.66
2018-11-11T10:53:46.307Z,16.56
2018-11-11T10:54:46.066Z,16.6
2018-11-11T10:55:46.055Z,16.65
2018-11-11T10:56:46.305Z,16.64
2018-11-11T10:57:46.049Z,16.71
2018-11-11T10:58:46.353Z,16.83
2018-11-11T10:59:45.798Z,16.83
2018-11-11T11:00:45.807Z,16.93
2018-11-11T11:01:46.310Z,16.91
2018-11-11T11:02:46.050Z,17.06
2018-11-11T11:03:45.779Z,17.19
2018-11-11T11:04:45.777Z,17.19
2018-11-11T11:05:46.052Z,17.23
2018-11-11T11:06:46.039Z,17.27
2018-11-11T11:07:46.074Z,17.3
2018-11-11T11:08:46.304Z,17.39
2018-11-11T11:09:46.037Z,17.38
2018-11-11T11:10:46.055Z,17.38
2018-11-11T11:11:46.324Z,17.34
2018-11-11T11:12:46.053Z,17.38
2018-11-11T11:13:46.157Z,17.34
2018-11-11T11:14:45.779Z,17.34
2018-11-11T11:15:46.304Z,17.45
2018-11-11T11:16:46.043Z,17.46
2018-11-11T11:17:46.340Z,17.52
2018-11-11T11:18:46.315Z,17.64
2018-11-11T11:19:46.055Z,17.63
2018-11-11T11:20:46.042Z,17.7
2018-11-11T11:21:46.303Z,17.74
2018-11-11T11:22:46.370Z,17.72
2018-11-11T11:23:46.048Z,17.78
2018-11-11T11:24:46.305Z,17.8
2018-11-11T11:25:46.728Z,17.79
2018-11-11T11:26:45.808Z,17.8
2018-11-11T11:27:46.053Z,17.89
2018-11-11T11:28:46.050Z,17.79
2018-11-11T11:29:46.057Z,17.86
2018-11-11T11:30:46.313Z,17.8
2018-11-11T11:31:47.058Z,17.72
2018-11-11T11:32:46.437Z,17.64
2018-11-11T11:33:46.384Z,17.6
2018-11-11T11:34:46.317Z,17.48
2018-11-11T11:35:45.979Z,17.34
2018-11-11T11:36:46.323Z,17.33
2018-11-11T11:37:46.102Z,17.38
2018-11-11T11:38:46.065Z,17.48
2018-11-11T11:39:46.051Z,17.36
2018-11-11T11:40:46.076Z,17.49
2018-11-11T11:41:46.328Z,17.36
2018-11-11T11:42:46.055Z,17.41
2018-11-11T11:43:46.312Z,17.45
2018-11-11T11:44:46.353Z,17.34
2018-11-11T11:45:46.332Z,17.3
2018-11-11T11:46:46.320Z,17.36
2018-11-11T11:47:46.348Z,17.2
2018-11-11T11:48:46.346Z,17.22
2018-11-11T11:49:46.209Z,17.24
2018-11-11T11:50:46.155Z,17.24
2018-11-11T11:51:46.160Z,17.34
2018-11-11T11:52:47.252Z,17.31
2018-11-11T11:53:46.082Z,17.38
2018-11-11T11:54:46.361Z,17.48
2018-11-11T11:55:45.814Z,17.45
2018-11-11T11:56:45.842Z,17.65
2018-11-11T11:57:47.238Z,17.63
2018-11-11T11:58:46.312Z,17.7
2018-11-11T11:59:46.330Z,17.78
2018-11-11T12:00:46.143Z,17.83
2018-11-11T12:01:46.333Z,17.86
2018-11-11T12:02:45.810Z,17.89
2018-11-11T12:03:46.088Z,17.9
2018-11-11T12:04:46.331Z,17.92
2018-11-11T12:05:45.820Z,17.97
2018-11-11T12:06:46.067Z,17.94
2018-11-11T12:07:46.123Z,17.97
2018-11-11T12:08:46.763Z,17.92
2018-11-11T12:09:46.120Z,18
2018-11-11T12:10:45.811Z,17.98
2018-11-11T12:11:46.337Z,18.05
2018-11-11T12:12:45.821Z,18
2018-11-11T12:13:46.351Z,18.07
2018-11-11T12:14:46.076Z,18
2018-11-11T12:15:46.340Z,18.04
2018-11-11T12:16:46.677Z,18.01
2018-11-11T12:17:45.811Z,17.92
2018-11-11T12:18:46.363Z,18.03
2018-11-11T12:19:46.346Z,17.97
2018-11-11T12:20:46.102Z,18.03
2018-11-11T12:21:46.102Z,18.15
2018-11-11T12:22:51.166Z,18.04
2018-11-11T12:23:46.088Z,18.05
2018-11-11T12:24:46.112Z,18.11
2018-11-11T12:25:46.095Z,18.1
2018-11-11T12:26:46.081Z,18.16
2018-11-11T12:27:46.083Z,18.16
2018-11-11T12:28:46.348Z,18.18
2018-11-11T12:29:46.091Z,18.1
2018-11-11T12:30:46.713Z,17.98
2018-11-11T12:31:46.371Z,18.04
2018-11-11T12:32:45.827Z,18.04
2018-11-11T12:33:46.333Z,18.01
2018-11-11T12:34:45.818Z,18.07
2018-11-11T12:35:46.110Z,18.23
2018-11-11T12:36:46.340Z,18.26
2018-11-11T12:37:46.634Z,18.34
2018-11-11T12:38:46.111Z,18.34
2018-11-11T12:39:46.401Z,18.29
2018-11-11T12:40:46.348Z,18.26
2018-11-11T12:41:46.097Z,18.22
2018-11-11T12:42:46.094Z,18.11
2018-11-11T12:43:46.092Z,18.16
2018-11-11T12:44:46.250Z,18.05
2018-11-11T12:45:46.097Z,18.1
2018-11-11T12:46:46.322Z,18.05
2018-11-11T12:47:46.094Z,18.03
2018-11-11T12:48:46.146Z,17.94
2018-11-11T12:49:46.095Z,17.95
2018-11-11T12:50:46.354Z,17.94
2018-11-11T12:51:46.097Z,17.92
2018-11-11T12:52:46.121Z,17.85
2018-11-11T12:53:46.103Z,17.9
2018-11-11T12:54:46.462Z,17.85
2018-11-11T12:55:46.107Z,17.86
2018-11-11T12:56:46.130Z,17.9